sensor_id;sensor_type;location;lat;lon;timestamp;pressure;altitude;pressure_sealevel;temperature;humidity
82416;BME280;72058;47.782;10.618;2024-03-08T00:00:38;93156.56;;;0.82;79.51
82416;BME280;72058;47.782;10.618;2024-03-08T00:03:05;93151.19;;;0.72;80.11
82416;BME280;72058;47.782;10.618;2024-03-08T00:05:30;93156.28;;;0.79;79.86
82416;BME280;72058;47.782;10.618;2024-03-08T00:07:56;93155.44;;;0.68;80.19
82416;BME280;72058;47.782;10.618;2024-03-08T00:10:22;93149.59;;;0.81;80.23
82416;BME280;72058;47.782;10.618;2024-03-08T00:12:47;93146.91;;;0.91;79.19
82416;BME280;72058;47.782;10.618;2024-03-08T00:15:17;93150.63;;;1.21;78.10
82416;BME280;72058;47.782;10.618;2024-03-08T00:17:43;93151.69;;;1.20;77.78
82416;BME280;72058;47.782;10.618;2024-03-08T00:20:09;93151.69;;;1.20;77.07
82416;BME280;72058;47.782;10.618;2024-03-08T00:22:35;93144.75;;;1.13;76.95
82416;BME280;72058;47.782;10.618;2024-03-08T00:25:01;93141.25;;;1.18;76.75
82416;BME280;72058;47.782;10.618;2024-03-08T00:27:27;93146.03;;;1.26;76.73
82416;BME280;72058;47.782;10.618;2024-03-08T00:29:55;93134.28;;;1.22;76.97
82416;BME280;72058;47.782;10.618;2024-03-08T00:32:20;93135.91;;;1.03;77.52
82416;BME280;72058;47.782;10.618;2024-03-08T00:34:46;93127.31;;;1.11;77.82
82416;BME280;72058;47.782;10.618;2024-03-08T00:37:11;93134.03;;;1.13;77.78
82416;BME280;72058;47.782;10.618;2024-03-08T00:39:37;93132.94;;;1.09;78.38
82416;BME280;72058;47.782;10.618;2024-03-08T00:42:02;93136.19;;;1.17;77.95
82416;BME280;72058;47.782;10.618;2024-03-08T00:44:28;93129.75;;;0.92;79.44
82416;BME280;72058;47.782;10.618;2024-03-08T00:46:53;93128.16;;;0.91;79.77
82416;BME280;72058;47.782;10.618;2024-03-08T00:49:19;93123.06;;;1.00;79.56
82416;BME280;72058;47.782;10.618;2024-03-08T00:51:45;93127.09;;;1.07;79.35
82416;BME280;72058;47.782;10.618;2024-03-08T00:54:10;93123.84;;;1.10;79.41
82416;BME280;72058;47.782;10.618;2024-03-08T00:56:35;93122.25;;;1.04;79.65
82416;BME280;72058;47.782;10.618;2024-03-08T00:59:01;93120.91;;;1.07;80.09
82416;BME280;72058;47.782;10.618;2024-03-08T01:01:28;93117.69;;;1.05;80.40
82416;BME280;72058;47.782;10.618;2024-03-08T01:03:53;93114.78;;;0.96;80.69
82416;BME280;72058;47.782;10.618;2024-03-08T01:06:18;93114.25;;;0.89;81.57
82416;BME280;72058;47.782;10.618;2024-03-08T01:08:44;93116.13;;;0.79;82.26
82416;BME280;72058;47.782;10.618;2024-03-08T01:11:10;93107.56;;;0.71;82.65
82416;BME280;72058;47.782;10.618;2024-03-08T01:13:36;93115.59;;;0.66;82.98
82416;BME280;72058;47.782;10.618;2024-03-08T01:16:01;93113.69;;;0.52;83.77
82416;BME280;72058;47.782;10.618;2024-03-08T01:18:29;93103.53;;;0.38;84.51
82416;BME280;72058;47.782;10.618;2024-03-08T01:20:54;93107.00;;;0.34;85.00
82416;BME280;72058;47.782;10.618;2024-03-08T01:23:19;93100.31;;;0.21;85.59
82416;BME280;72058;47.782;10.618;2024-03-08T01:25:45;93099.75;;;0.09;86.09
82416;BME280;72058;47.782;10.618;2024-03-08T01:28:10;93091.72;;;0.04;86.61
82416;BME280;72058;47.782;10.618;2024-03-08T01:30:35;93094.41;;;0.14;86.25
82416;BME280;72058;47.782;10.618;2024-03-08T01:33:02;93090.19;;;0.33;85.53
82416;BME280;72058;47.782;10.618;2024-03-08T01:35:28;93087.47;;;0.44;84.75
82416;BME280;72058;47.782;10.618;2024-03-08T01:37:53;93088.28;;;0.59;84.70
82416;BME280;72058;47.782;10.618;2024-03-08T01:40:19;93080.00;;;0.66;84.00
82416;BME280;72058;47.782;10.618;2024-03-08T01:42:45;93078.91;;;0.77;83.61
82416;BME280;72058;47.782;10.618;2024-03-08T01:45:10;93071.97;;;0.81;83.66
82416;BME280;72058;47.782;10.618;2024-03-08T01:47:36;93070.34;;;0.80;83.44
82416;BME280;72058;47.782;10.618;2024-03-08T01:50:02;93066.59;;;0.76;83.44
82416;BME280;72058;47.782;10.618;2024-03-08T01:52:32;93078.41;;;0.75;83.88
82416;BME280;72058;47.782;10.618;2024-03-08T01:55:02;93058.28;;;0.77;83.57
82416;BME280;72058;47.782;10.618;2024-03-08T01:57:30;93056.72;;;0.66;84.28
82416;BME280;72058;47.782;10.618;2024-03-08T01:59:56;93063.91;;;0.76;83.90
82416;BME280;72058;47.782;10.618;2024-03-08T02:02:22;93061.50;;;0.80;83.49
82416;BME280;72058;47.782;10.618;2024-03-08T02:04:48;93056.44;;;0.78;83.78
82416;BME280;72058;47.782;10.618;2024-03-08T02:07:14;93055.34;;;0.79;83.52
82416;BME280;72058;47.782;10.618;2024-03-08T02:09:39;93052.13;;;0.77;83.71
82416;BME280;72058;47.782;10.618;2024-03-08T02:12:05;93046.25;;;0.90;83.41
82416;BME280;72058;47.782;10.618;2024-03-08T02:14:30;93046.25;;;0.90;83.15
82416;BME280;72058;47.782;10.618;2024-03-08T02:17:00;93041.72;;;0.81;83.59
82416;BME280;72058;47.782;10.618;2024-03-08T02:19:25;93047.34;;;0.74;83.79
82416;BME280;72058;47.782;10.618;2024-03-08T02:21:51;93048.69;;;0.71;83.95
82416;BME280;72058;47.782;10.618;2024-03-08T02:24:16;93034.47;;;0.86;83.48
82416;BME280;72058;47.782;10.618;2024-03-08T02:26:41;93042.75;;;0.95;83.19
82416;BME280;72058;47.782;10.618;2024-03-08T02:29:07;93032.59;;;0.82;83.24
82416;BME280;72058;47.782;10.618;2024-03-08T02:31:33;93035.81;;;0.84;83.57
82416;BME280;72058;47.782;10.618;2024-03-08T02:33:59;93022.19;;;0.75;83.84
82416;BME280;72058;47.782;10.618;2024-03-08T02:36:24;93031.81;;;0.71;83.94
82416;BME280;72058;47.782;10.618;2024-03-08T02:38:50;93027.53;;;0.75;83.70
82416;BME280;72058;47.782;10.618;2024-03-08T02:41:15;93016.28;;;0.68;83.79
82416;BME280;72058;47.782;10.618;2024-03-08T02:43:40;93027.28;;;0.61;84.34
82416;BME280;72058;47.782;10.618;2024-03-08T02:46:06;93018.19;;;0.62;84.36
82416;BME280;72058;47.782;10.618;2024-03-08T02:48:31;93024.06;;;0.59;84.48
82416;BME280;72058;47.782;10.618;2024-03-08T02:50:57;93011.78;;;0.43;85.08
82416;BME280;72058;47.782;10.618;2024-03-08T02:53:22;93016.06;;;0.29;85.89
82416;BME280;72058;47.782;10.618;2024-03-08T02:55:47;93016.88;;;0.24;86.23
82416;BME280;72058;47.782;10.618;2024-03-08T02:58:13;93021.16;;;0.20;86.47
82416;BME280;72058;47.782;10.618;2024-03-08T03:00:39;93015.00;;;0.30;86.00
82416;BME280;72058;47.782;10.618;2024-03-08T03:03:06;93009.38;;;0.36;85.89
82416;BME280;72058;47.782;10.618;2024-03-08T03:05:31;93009.38;;;0.47;85.49
82416;BME280;72058;47.782;10.618;2024-03-08T03:07:57;93004.03;;;0.47;85.39
82416;BME280;72058;47.782;10.618;2024-03-08T03:10:23;93012.31;;;0.50;84.97
82416;BME280;72058;47.782;10.618;2024-03-08T03:12:49;92998.41;;;0.48;85.09
82416;BME280;72058;47.782;10.618;2024-03-08T03:15:15;92998.66;;;0.57;85.10
82416;BME280;72058;47.782;10.618;2024-03-08T03:17:45;92995.47;;;0.50;85.35
82416;BME280;72058;47.782;10.618;2024-03-08T03:20:11;92998.69;;;0.47;85.67
82416;BME280;72058;47.782;10.618;2024-03-08T03:22:47;92996.78;;;0.52;85.70
82416;BME280;72058;47.782;10.618;2024-03-08T03:25:17;92992.25;;;0.58;85.36
82416;BME280;72058;47.782;10.618;2024-03-08T03:27:48;92990.91;;;0.55;85.39
82416;BME280;72058;47.782;10.618;2024-03-08T03:30:14;92996.81;;;0.47;85.57
82416;BME280;72058;47.782;10.618;2024-03-08T03:32:51;92987.44;;;0.50;85.72
82416;BME280;72058;47.782;10.618;2024-03-08T03:35:17;92986.13;;;0.32;85.89
82416;BME280;72058;47.782;10.618;2024-03-08T03:37:43;92991.47;;;0.27;86.21
82416;BME280;72058;47.782;10.618;2024-03-08T03:40:27;92988.53;;;0.33;85.77
82416;BME280;72058;47.782;10.618;2024-03-08T03:42:52;92987.44;;;0.19;86.04
82416;BME280;72058;47.782;10.618;2024-03-08T03:45:18;92982.91;;;0.20;85.86
82416;BME280;72058;47.782;10.618;2024-03-08T03:47:45;92984.78;;;0.24;85.63
82416;BME280;72058;47.782;10.618;2024-03-08T03:50:10;92979.16;;;0.26;85.47
82416;BME280;72058;47.782;10.618;2024-03-08T03:52:36;92977.56;;;0.20;85.75
82416;BME280;72058;47.782;10.618;2024-03-08T03:55:01;92982.94;;;0.25;85.68
82416;BME280;72058;47.782;10.618;2024-03-08T03:57:27;92978.63;;;0.49;85.03
82416;BME280;72058;47.782;10.618;2024-03-08T03:59:52;92973.22;;;0.64;84.15
82416;BME280;72058;47.782;10.618;2024-03-08T04:02:17;92978.81;;;0.68;83.67
82416;BME280;72058;47.782;10.618;2024-03-08T04:04:45;92984.22;;;0.53;84.20
82416;BME280;72058;47.782;10.618;2024-03-08T04:07:11;92970.34;;;0.41;85.06
82416;BME280;72058;47.782;10.618;2024-03-08T04:09:36;92975.38;;;0.42;85.01
82416;BME280;72058;47.782;10.618;2024-03-08T04:12:01;92978.88;;;0.37;85.22
82416;BME280;72058;47.782;10.618;2024-03-08T04:14:27;92979.16;;;0.31;85.27
82416;BME280;72058;47.782;10.618;2024-03-08T04:16:52;92970.06;;;0.32;85.15
82416;BME280;72058;47.782;10.618;2024-03-08T04:19:18;92967.41;;;0.32;85.37
82416;BME280;72058;47.782;10.618;2024-03-08T04:21:44;92966.88;;;0.30;85.68
82416;BME280;72058;47.782;10.618;2024-03-08T04:24:09;92966.59;;;0.21;85.83
82416;BME280;72058;47.782;10.618;2024-03-08T04:26:35;92966.59;;;0.21;85.50
82416;BME280;72058;47.782;10.618;2024-03-08T04:29:01;92963.91;;;0.26;85.36
82416;BME280;72058;47.782;10.618;2024-03-08T04:31:26;92959.13;;;0.33;85.20
82416;BME280;72058;47.782;10.618;2024-03-08T04:33:52;92962.84;;;0.37;85.06
82416;BME280;72058;47.782;10.618;2024-03-08T04:36:17;92958.31;;;0.33;84.92
82416;BME280;72058;47.782;10.618;2024-03-08T04:38:42;92969.28;;;0.21;85.35
82416;BME280;72058;47.782;10.618;2024-03-08T04:41:08;92963.38;;;0.19;85.07
82416;BME280;72058;47.782;10.618;2024-03-08T04:43:34;92955.09;;;0.26;85.18
82416;BME280;72058;47.782;10.618;2024-03-08T04:45:59;92955.88;;;0.36;84.90
82416;BME280;72058;47.782;10.618;2024-03-08T04:48:25;92948.69;;;0.12;85.64
82416;BME280;72058;47.782;10.618;2024-03-08T04:50:53;92952.97;;;0.03;86.36
82416;BME280;72058;47.782;10.618;2024-03-08T04:53:19;92949.22;;;0.09;86.03
82416;BME280;72058;47.782;10.618;2024-03-08T04:55:44;92951.91;;;0.14;85.98
82416;BME280;72058;47.782;10.618;2024-03-08T04:58:10;92949.50;;;0.12;85.81
82416;BME280;72058;47.782;10.618;2024-03-08T05:00:35;92949.75;;;0.00;86.35
82416;BME280;72058;47.782;10.618;2024-03-08T05:03:01;92949.50;;;0.07;86.26
82416;BME280;72058;47.782;10.618;2024-03-08T05:05:26;92945.22;;;0.16;85.83
82416;BME280;72058;47.782;10.618;2024-03-08T05:07:53;92948.16;;;0.15;85.77
82416;BME280;72058;47.782;10.618;2024-03-08T05:10:19;92953.50;;;0.15;85.64
82416;BME280;72058;47.782;10.618;2024-03-08T05:12:44;92949.78;;;0.16;85.38
82416;BME280;72058;47.782;10.618;2024-03-08T05:15:10;92951.66;;;0.05;85.21
82416;BME280;72058;47.782;10.618;2024-03-08T05:17:35;92951.91;;;0.04;85.40
82416;BME280;72058;47.782;10.618;2024-03-08T05:20:01;92950.28;;;0.03;85.43
82416;BME280;72058;47.782;10.618;2024-03-08T05:22:27;92953.78;;;-0.02;85.74
82416;BME280;72058;47.782;10.618;2024-03-08T05:24:53;92946.03;;;-0.04;85.98
82416;BME280;72058;47.782;10.618;2024-03-08T05:27:18;92941.50;;;-0.03;85.60
82416;BME280;72058;47.782;10.618;2024-03-08T05:29:43;92938.53;;;-0.07;85.92
82416;BME280;72058;47.782;10.618;2024-03-08T05:32:09;92939.34;;;-0.01;85.61
82416;BME280;72058;47.782;10.618;2024-03-08T05:34:35;92936.66;;;-0.06;85.35
82416;BME280;72058;47.782;10.618;2024-03-08T05:37:00;92930.50;;;-0.07;85.64
82416;BME280;72058;47.782;10.618;2024-03-08T05:39:26;92939.34;;;0.04;85.42
82416;BME280;72058;47.782;10.618;2024-03-08T05:41:52;92932.41;;;0.08;85.03
82416;BME280;72058;47.782;10.618;2024-03-08T05:44:17;92928.63;;;0.09;85.00
82416;BME280;72058;47.782;10.618;2024-03-08T05:46:43;92929.19;;;0.06;84.89
82416;BME280;72058;47.782;10.618;2024-03-08T05:49:08;92931.31;;;-0.16;85.81
82416;BME280;72058;47.782;10.618;2024-03-08T05:51:36;92937.22;;;-0.09;85.96
82416;BME280;72058;47.782;10.618;2024-03-08T05:54:07;92924.09;;;-0.16;85.78
82416;BME280;72058;47.782;10.618;2024-03-08T05:56:35;92934.81;;;-0.01;85.53
82416;BME280;72058;47.782;10.618;2024-03-08T05:59:01;92931.31;;;0.04;85.30
82416;BME280;72058;47.782;10.618;2024-03-08T06:01:26;92929.72;;;0.03;85.70
82416;BME280;72058;47.782;10.618;2024-03-08T06:03:53;92932.94;;;0.15;84.98
82416;BME280;72058;47.782;10.618;2024-03-08T06:06:20;92927.06;;;0.08;84.69
82416;BME280;72058;47.782;10.618;2024-03-08T06:08:47;92927.31;;;0.02;85.41
82416;BME280;72058;47.782;10.618;2024-03-08T06:11:14;92926.78;;;0.05;85.52
82416;BME280;72058;47.782;10.618;2024-03-08T06:13:40;92931.88;;;0.06;85.42
82416;BME280;72058;47.782;10.618;2024-03-08T06:16:05;92925.72;;;0.06;85.55
82416;BME280;72058;47.782;10.618;2024-03-08T06:18:36;92935.59;;;0.10;85.45
82416;BME280;72058;47.782;10.618;2024-03-08T06:21:05;92928.88;;;0.28;84.59
82416;BME280;72058;47.782;10.618;2024-03-08T06:23:33;92944.13;;;0.27;84.28
82416;BME280;72058;47.782;10.618;2024-03-08T06:25:59;92936.94;;;0.08;84.65
82416;BME280;72058;47.782;10.618;2024-03-08T06:28:25;92944.69;;;-0.01;84.22
82416;BME280;72058;47.782;10.618;2024-03-08T06:30:50;92937.72;;;-0.07;84.29
82416;BME280;72058;47.782;10.618;2024-03-08T06:33:17;92945.22;;;-0.19;85.35
82416;BME280;72058;47.782;10.618;2024-03-08T06:35:43;92938.28;;;-0.05;84.98
82416;BME280;72058;47.782;10.618;2024-03-08T06:38:08;92936.94;;;-0.08;84.65
82416;BME280;72058;47.782;10.618;2024-03-08T06:40:34;92945.25;;;-0.09;84.95
82416;BME280;72058;47.782;10.618;2024-03-08T06:42:59;92946.03;;;-0.04;85.42
82416;BME280;72058;47.782;10.618;2024-03-08T06:45:24;92941.47;;;0.02;85.14
82416;BME280;72058;47.782;10.618;2024-03-08T06:47:51;92934.00;;;-0.06;85.53
82416;BME280;72058;47.782;10.618;2024-03-08T06:50:16;92938.53;;;-0.17;86.02
82416;BME280;72058;47.782;10.618;2024-03-08T06:52:42;92939.63;;;-0.18;86.46
82416;BME280;72058;47.782;10.618;2024-03-08T06:55:13;92936.69;;;-0.01;86.02
82416;BME280;72058;47.782;10.618;2024-03-08T06:57:39;92944.69;;;-0.01;85.97
82416;BME280;72058;47.782;10.618;2024-03-08T07:00:08;92934.78;;;0.20;84.87
82416;BME280;72058;47.782;10.618;2024-03-08T07:02:35;92929.16;;;0.11;85.34
82416;BME280;72058;47.782;10.618;2024-03-08T07:05:01;92932.09;;;0.10;85.19
82416;BME280;72058;47.782;10.618;2024-03-08T07:07:26;92927.31;;;0.02;85.08
82416;BME280;72058;47.782;10.618;2024-03-08T07:09:52;92933.19;;;-0.07;85.04
82416;BME280;72058;47.782;10.618;2024-03-08T07:12:17;92926.53;;;-0.19;84.81
82416;BME280;72058;47.782;10.618;2024-03-08T07:14:42;92925.19;;;-0.27;85.89
82416;BME280;72058;47.782;10.618;2024-03-08T07:17:11;92931.03;;;-0.40;86.14
82416;BME280;72058;47.782;10.618;2024-03-08T07:19:36;92916.06;;;-0.56;87.12
82416;BME280;72058;47.782;10.618;2024-03-08T07:22:03;92922.50;;;-0.47;87.30
82416;BME280;72058;47.782;10.618;2024-03-08T07:24:29;92928.41;;;-0.20;86.65
82416;BME280;72058;47.782;10.618;2024-03-08T07:27:13;92922.25;;;-0.10;86.16
82416;BME280;72058;47.782;10.618;2024-03-08T07:29:38;92922.22;;;-0.15;85.54
82416;BME280;72058;47.782;10.618;2024-03-08T07:32:03;92919.03;;;-0.12;85.77
82416;BME280;72058;47.782;10.618;2024-03-08T07:34:48;92921.44;;;-0.21;86.11
82416;BME280;72058;47.782;10.618;2024-03-08T07:37:14;92922.78;;;-0.18;85.68
82416;BME280;72058;47.782;10.618;2024-03-08T07:39:39;92915.28;;;-0.06;84.84
82416;BME280;72058;47.782;10.618;2024-03-08T07:42:05;92916.91;;;-0.10;85.08
82416;BME280;72058;47.782;10.618;2024-03-08T07:44:30;92919.81;;;0.04;84.75
82416;BME280;72058;47.782;10.618;2024-03-08T07:46:57;92918.75;;;0.10;84.85
82416;BME280;72058;47.782;10.618;2024-03-08T07:49:24;92920.09;;;0.07;84.88
82416;BME280;72058;47.782;10.618;2024-03-08T07:51:49;92917.94;;;0.04;85.18
82416;BME280;72058;47.782;10.618;2024-03-08T07:54:15;92924.66;;;-0.09;86.23
82416;BME280;72058;47.782;10.618;2024-03-08T07:56:40;92908.88;;;-0.05;85.74
82416;BME280;72058;47.782;10.618;2024-03-08T07:59:05;92911.78;;;0.09;85.33
82416;BME280;72058;47.782;10.618;2024-03-08T08:01:31;92913.66;;;0.13;85.16
82416;BME280;72058;47.782;10.618;2024-03-08T08:03:58;92909.94;;;0.04;85.00
82416;BME280;72058;47.782;10.618;2024-03-08T08:06:24;92909.66;;;0.00;85.03
82416;BME280;72058;47.782;10.618;2024-03-08T08:08:50;92898.44;;;-0.07;85.43
82416;BME280;72058;47.782;10.618;2024-03-08T08:11:16;92899.78;;;-0.14;85.70
82416;BME280;72058;47.782;10.618;2024-03-08T08:13:41;92900.06;;;-0.01;85.82
82416;BME280;72058;47.782;10.618;2024-03-08T08:16:08;92888.03;;;-0.03;85.22
82416;BME280;72058;47.782;10.618;2024-03-08T08:18:34;92893.09;;;0.04;84.62
82416;BME280;72058;47.782;10.618;2024-03-08T08:21:01;92894.97;;;0.03;84.58
82416;BME280;72058;47.782;10.618;2024-03-08T08:23:26;92888.00;;;0.02;84.50
82416;BME280;72058;47.782;10.618;2024-03-08T08:25:52;92882.97;;;-0.10;85.65
82416;BME280;72058;47.782;10.618;2024-03-08T08:28:17;92881.06;;;-0.14;85.65
82416;BME280;72058;47.782;10.618;2024-03-08T08:30:44;92884.84;;;-0.25;85.87
82416;BME280;72058;47.782;10.618;2024-03-08T08:33:09;92873.63;;;-0.17;86.37
82416;BME280;72058;47.782;10.618;2024-03-08T08:35:36;92879.22;;;-0.09;85.56
82416;BME280;72058;47.782;10.618;2024-03-08T08:38:02;92876.25;;;0.08;85.19
82416;BME280;72058;47.782;10.618;2024-03-08T08:40:29;92872.47;;;0.24;84.59
82416;BME280;72058;47.782;10.618;2024-03-08T08:42:56;92871.66;;;0.19;84.28
82416;BME280;72058;47.782;10.618;2024-03-08T08:45:22;92871.94;;;0.22;85.39
82416;BME280;72058;47.782;10.618;2024-03-08T08:47:48;92872.97;;;0.26;84.21
82416;BME280;72058;47.782;10.618;2024-03-08T08:50:14;92864.97;;;0.31;84.50
82416;BME280;72058;47.782;10.618;2024-03-08T08:52:41;92867.94;;;0.25;84.45
82416;BME280;72058;47.782;10.618;2024-03-08T08:55:08;92859.63;;;0.21;84.39
82416;BME280;72058;47.782;10.618;2024-03-08T08:57:36;92863.66;;;0.24;84.17
82416;BME280;72058;47.782;10.618;2024-03-08T09:00:02;92870.88;;;0.23;84.68
82416;BME280;72058;47.782;10.618;2024-03-08T09:02:32;92863.38;;;0.20;84.92
82416;BME280;72058;47.782;10.618;2024-03-08T09:04:57;92865.78;;;0.32;84.19
82416;BME280;72058;47.782;10.618;2024-03-08T09:07:22;92852.13;;;0.33;83.77
82416;BME280;72058;47.782;10.618;2024-03-08T09:09:49;92848.88;;;0.36;84.13
82416;BME280;72058;47.782;10.618;2024-03-08T09:12:14;92851.03;;;0.40;83.99
82416;BME280;72058;47.782;10.618;2024-03-08T09:14:40;92846.72;;;0.49;84.27
82416;BME280;72058;47.782;10.618;2024-03-08T09:17:06;92845.41;;;0.36;83.83
82416;BME280;72058;47.782;10.618;2024-03-08T09:19:34;92845.69;;;0.34;84.44
82416;BME280;72058;47.782;10.618;2024-03-08T09:22:00;92847.25;;;0.46;83.82
82416;BME280;72058;47.782;10.618;2024-03-08T09:24:25;92835.50;;;0.47;83.88
82416;BME280;72058;47.782;10.618;2024-03-08T09:26:51;92841.38;;;0.49;84.04
82416;BME280;72058;47.782;10.618;2024-03-08T09:29:17;92836.81;;;0.44;84.67
82416;BME280;72058;47.782;10.618;2024-03-08T09:31:42;92830.41;;;0.45;84.75
82416;BME280;72058;47.782;10.618;2024-03-08T09:34:08;92833.28;;;0.59;83.53
82416;BME280;72058;47.782;10.618;2024-03-08T09:36:34;92827.88;;;0.74;83.15
82416;BME280;72058;47.782;10.618;2024-03-08T09:38:59;92837.22;;;0.76;82.33
82416;BME280;72058;47.782;10.618;2024-03-08T09:41:26;92832.94;;;0.81;82.85
82416;BME280;72058;47.782;10.618;2024-03-08T09:43:51;92833.91;;;1.00;82.30
82416;BME280;72058;47.782;10.618;2024-03-08T09:46:18;92833.84;;;1.05;82.33
82416;BME280;72058;47.782;10.618;2024-03-08T09:48:45;92827.97;;;1.08;82.57
82416;BME280;72058;47.782;10.618;2024-03-08T09:51:12;92829.00;;;1.12;82.32
82416;BME280;72058;47.782;10.618;2024-03-08T09:53:40;92832.63;;;1.31;82.18
82416;BME280;72058;47.782;10.618;2024-03-08T09:56:07;92820.19;;;1.45;81.46
82416;BME280;72058;47.782;10.618;2024-03-08T09:58:33;92824.13;;;1.58;80.71
82416;BME280;72058;47.782;10.618;2024-03-08T10:00:59;92831.22;;;1.73;80.53
82416;BME280;72058;47.782;10.618;2024-03-08T10:03:27;92821.50;;;1.82;80.88
82416;BME280;72058;47.782;10.618;2024-03-08T10:05:52;92826.66;;;1.73;79.92
82416;BME280;72058;47.782;10.618;2024-03-08T10:08:22;92821.66;;;1.62;79.83
82416;BME280;72058;47.782;10.618;2024-03-08T10:10:47;92820.63;;;1.58;79.97
82416;BME280;72058;47.782;10.618;2024-03-08T10:13:15;92821.72;;;1.57;80.19
82416;BME280;72058;47.782;10.618;2024-03-08T10:15:42;92816.22;;;1.38;80.54
82416;BME280;72058;47.782;10.618;2024-03-08T10:18:07;92820.31;;;1.30;81.60
82416;BME280;72058;47.782;10.618;2024-03-08T10:20:33;92819.66;;;1.43;81.26
82416;BME280;72058;47.782;10.618;2024-03-08T10:23:10;92816.09;;;1.53;81.48
82416;BME280;72058;47.782;10.618;2024-03-08T10:25:36;92809.59;;;1.64;80.96
82416;BME280;72058;47.782;10.618;2024-03-08T10:28:05;92808.97;;;1.72;80.78
82416;BME280;72058;47.782;10.618;2024-03-08T10:30:31;92807.00;;;1.83;80.84
82416;BME280;72058;47.782;10.618;2024-03-08T10:32:57;92798.34;;;1.91;80.92
82416;BME280;72058;47.782;10.618;2024-03-08T10:35:23;92795.94;;;1.89;80.93
82416;BME280;72058;47.782;10.618;2024-03-08T10:37:50;92803.47;;;1.87;80.78
82416;BME280;72058;47.782;10.618;2024-03-08T10:40:26;92797.47;;;1.96;81.38
82416;BME280;72058;47.782;10.618;2024-03-08T10:42:56;92795.84;;;2.00;80.89
82416;BME280;72058;47.782;10.618;2024-03-08T10:45:36;92800.47;;;2.18;81.12
82416;BME280;72058;47.782;10.618;2024-03-08T10:51:06;92801.56;;;2.41;79.36
82416;BME280;72058;47.782;10.618;2024-03-08T10:53:36;92796.84;;;2.51;79.38
82416;BME280;72058;47.782;10.618;2024-03-08T10:56:04;92793.44;;;2.46;79.71
82416;BME280;72058;47.782;10.618;2024-03-08T10:58:30;92789.41;;;2.48;79.55
82416;BME280;72058;47.782;10.618;2024-03-08T11:00:57;92796.81;;;2.56;79.93
82416;BME280;72058;47.782;10.618;2024-03-08T11:06:08;92791.03;;;2.87;79.05
82416;BME280;72058;47.782;10.618;2024-03-08T11:08:36;92785.91;;;2.90;78.11
82416;BME280;72058;47.782;10.618;2024-03-08T11:11:01;92788.34;;;2.87;78.68
82416;BME280;72058;47.782;10.618;2024-03-08T11:13:37;92784.16;;;2.99;79.19
82416;BME280;72058;47.782;10.618;2024-03-08T11:16:07;92778.50;;;3.01;78.34
82416;BME280;72058;47.782;10.618;2024-03-08T11:18:35;92777.13;;;3.03;78.65
82416;BME280;72058;47.782;10.618;2024-03-08T11:21:06;92779.00;;;3.22;78.12
82416;BME280;72058;47.782;10.618;2024-03-08T11:23:37;92772.81;;;3.21;77.50
82416;BME280;72058;47.782;10.618;2024-03-08T11:26:17;92772.03;;;3.21;77.67
82416;BME280;72058;47.782;10.618;2024-03-08T11:28:43;92771.22;;;3.39;77.44
82416;BME280;72058;47.782;10.618;2024-03-08T11:33:39;92762.78;;;3.27;77.42
82416;BME280;72058;47.782;10.618;2024-03-08T11:36:21;92758.72;;;3.29;77.21
82416;BME280;72058;47.782;10.618;2024-03-08T11:38:48;92755.97;;;3.34;77.70
82416;BME280;72058;47.782;10.618;2024-03-08T11:41:20;92752.31;;;3.44;77.43
82416;BME280;72058;47.782;10.618;2024-03-08T11:43:46;92751.44;;;3.49;77.22
82416;BME280;72058;47.782;10.618;2024-03-08T11:46:13;92749.94;;;3.42;77.65
82416;BME280;72058;47.782;10.618;2024-03-08T11:48:42;92732.81;;;3.52;77.90
82416;BME280;72058;47.782;10.618;2024-03-08T11:51:11;92735.03;;;3.64;77.19
82416;BME280;72058;47.782;10.618;2024-03-08T11:53:37;92735.84;;;3.64;77.04
82416;BME280;72058;47.782;10.618;2024-03-08T11:56:13;92735.69;;;3.74;77.16
82416;BME280;72058;47.782;10.618;2024-03-08T11:58:40;92733.78;;;3.75;76.50
82416;BME280;72058;47.782;10.618;2024-03-08T12:01:09;92731.97;;;3.70;76.82
82416;BME280;72058;47.782;10.618;2024-03-08T12:03:41;92731.31;;;3.46;76.27
82416;BME280;72058;47.782;10.618;2024-03-08T12:06:12;92731.03;;;3.48;76.78
82416;BME280;72058;47.782;10.618;2024-03-08T12:08:40;92727.69;;;3.37;76.63
82416;BME280;72058;47.782;10.618;2024-03-08T12:11:05;92718.22;;;3.26;77.78
82416;BME280;72058;47.782;10.618;2024-03-08T12:13:32;92714.06;;;3.33;78.33
82416;BME280;72058;47.782;10.618;2024-03-08T12:16:02;92708.19;;;3.31;78.24
82416;BME280;72058;47.782;10.618;2024-03-08T12:18:38;92709.13;;;3.54;78.95
82416;BME280;72058;47.782;10.618;2024-03-08T12:21:11;92698.63;;;3.39;77.46
82416;BME280;72058;47.782;10.618;2024-03-08T12:23:38;92704.94;;;3.48;77.72
82416;BME280;72058;47.782;10.618;2024-03-08T12:26:14;92701.03;;;3.40;77.11
82416;BME280;72058;47.782;10.618;2024-03-08T12:28:41;92700.03;;;3.36;78.22
82416;BME280;72058;47.782;10.618;2024-03-08T12:31:07;92700.81;;;3.37;77.70
82416;BME280;72058;47.782;10.618;2024-03-08T12:36:15;92696.41;;;3.60;76.82
82416;BME280;72058;47.782;10.618;2024-03-08T12:38:43;92696.31;;;3.65;77.64
82416;BME280;72058;47.782;10.618;2024-03-08T12:41:09;92680.97;;;3.65;77.04
82416;BME280;72058;47.782;10.618;2024-03-08T12:43:34;92678.59;;;3.64;77.60
82416;BME280;72058;47.782;10.618;2024-03-08T12:46:00;92679.50;;;3.73;78.22
82416;BME280;72058;47.782;10.618;2024-03-08T12:48:25;92674.00;;;3.78;77.75
82416;BME280;72058;47.782;10.618;2024-03-08T12:50:51;92667.84;;;3.77;77.16
82416;BME280;72058;47.782;10.618;2024-03-08T12:53:17;92660.88;;;3.90;76.91
82416;BME280;72058;47.782;10.618;2024-03-08T12:55:43;92660.88;;;4.04;77.26
82416;BME280;72058;47.782;10.618;2024-03-08T12:58:09;92660.09;;;4.17;76.93
82416;BME280;72058;47.782;10.618;2024-03-08T13:00:34;92656.47;;;4.22;76.71
82416;BME280;72058;47.782;10.618;2024-03-08T13:03:01;92653.88;;;4.30;77.24
82416;BME280;72058;47.782;10.618;2024-03-08T13:05:27;92650.19;;;4.40;76.89